Time;durP1;ratioP1;P1;durP2;ratioP2;P2;SDS_P1;SDS_P2;PMS_P1;PMS_P2;Temp;Humidity;BMP_temperature;BMP_pressure;BME280_temperature;BME280_humidity;BME280_pressure;Samples;Min_cycle;Max_cycle;Signal;HPM_P1;HPM_P2
2022/06/28 00:01:52;;;;;;;5.55;5.15;;;;;;;;;;5023788;28;20255;-78
2022/06/28 00:04:19;;;;;;;6.55;4.88;;;;;;;;;;5043606;28;20240;-78
2022/06/28 00:06:44;;;;;;;5.53;4.97;;;;;;;;;;5015086;28;20224;-79
2022/06/28 00:09:14;;;;;;;5.68;5.20;;;;;;;;;;5014158;28;20585;-79
2022/06/28 00:11:42;;;;;;;8.57;5.55;;;;;;;;;;5013757;28;20220;-76
2022/06/28 00:16:56;;;;;;;7.03;5.68;;;;;;;;;;5010493;28;20346;-76
2022/06/28 00:19:24;;;;;;;6.10;5.55;;;;;;;;;;5012292;28;21356;-76
2022/06/28 00:21:50;;;;;;;5.93;5.43;;;;;;;;;;5008959;28;20236;-77
2022/06/28 00:24:15;;;;;;;6.40;5.80;;;;;;;;;;5008921;28;20227;-76
2022/06/28 00:26:43;;;;;;;6.57;5.85;;;;;;;;;;5024199;28;20220;-77
2022/06/28 00:29:09;;;;;;;6.82;6.07;;;;;;;;;;5013194;28;20227;-82
2022/06/28 00:31:35;;;;;;;6.80;6.20;;;;;;;;;;5020599;28;20224;-82
2022/06/28 00:34:05;;;;;;;7.32;6.63;;;;;;;;;;5011775;28;20228;-79
2022/06/28 00:36:35;;;;;;;7.10;6.60;;;;;;;;;;5013766;28;20303;-77
2022/06/28 00:39:01;;;;;;;6.88;6.35;;;;;;;;;;5011942;28;20216;-77
2022/06/28 00:41:26;;;;;;;7.72;7.13;;;;;;;;;;5010201;28;20697;-78
2022/06/28 00:43:54;;;;;;;7.97;7.28;;;;;;;;;;5010293;28;20313;-78
2022/06/28 00:46:26;;;;;;;8.60;7.80;;;;;;;;;;5010290;28;20220;-77
2022/06/28 00:48:51;;;;;;;6.78;6.28;;;;;;;;;;5014182;28;20231;-79
2022/06/28 00:51:17;;;;;;;7.97;7.30;;;;;;;;;;4997720;28;20235;-77
2022/06/28 00:53:42;;;;;;;8.35;7.60;;;;;;;;;;5044434;28;20223;-77
2022/06/28 00:56:08;;;;;;;8.70;8.00;;;;;;;;;;5016828;28;20228;-79
2022/06/28 00:58:36;;;;;;;9.13;8.23;;;;;;;;;;5040640;28;20216;-78
2022/06/28 01:01:04;;;;;;;9.35;8.45;;;;;;;;;;5010553;28;20231;-78
2022/06/28 01:03:29;;;;;;;9.35;8.45;;;;;;;;;;5009956;28;20240;-77
2022/06/28 01:05:57;;;;;;;8.77;8.07;;;;;;;;;;5009132;28;20227;-78
2022/06/28 01:08:26;;;;;;;8.90;8.10;;;;;;;;;;5019357;28;20232;-78
2022/06/28 01:10:52;;;;;;;9.85;8.88;;;;;;;;;;5013620;28;20239;-78
2022/06/28 01:13:19;;;;;;;9.98;8.98;;;;;;;;;;5012553;28;20588;-79
2022/06/28 01:15:48;;;;;;;9.73;8.88;;;;;;;;;;5023353;28;20311;-79
2022/06/28 01:18:14;;;;;;;10.27;9.38;;;;;;;;;;5036951;28;20216;-80
2022/06/28 01:20:47;;;;;;;10.18;9.27;;;;;;;;;;4993960;28;20702;-79
2022/06/28 01:23:23;;;;;;;10.73;9.63;;;;;;;;;;5022357;28;20229;-79
2022/06/28 01:26:05;;;;;;;10.07;9.27;;;;;;;;;;5020167;28;20226;-79
2022/06/28 01:28:40;;;;;;;10.35;9.45;;;;;;;;;;5002909;28;20230;-79
2022/06/28 01:31:18;;;;;;;10.82;9.82;;;;;;;;;;5012361;28;20223;-80
2022/06/28 01:33:47;;;;;;;10.90;9.88;;;;;;;;;;5039202;28;20225;-81
2022/06/28 01:36:17;;;;;;;10.77;9.90;;;;;;;;;;5005539;28;20247;-78
2022/06/28 01:38:47;;;;;;;11.13;9.65;;;;;;;;;;5023584;28;20694;-78
2022/06/28 01:41:34;;;;;;;10.05;9.20;;;;;;;;;;5018124;28;20228;-78
2022/06/28 01:44:32;;;;;;;10.15;9.15;;;;;;;;;;5017675;28;20668;-81
2022/06/28 01:47:18;;;;;;;9.65;8.85;;;;;;;;;;5014747;28;20246;-80
2022/06/28 01:50:02;;;;;;;11.52;9.90;;;;;;;;;;5017158;28;20322;-81
2022/06/28 01:52:43;;;;;;;10.00;9.20;;;;;;;;;;5016237;28;20285;-81
2022/06/28 01:55:43;;;;;;;10.02;9.23;;;;;;;;;;5025305;28;20749;-80
2022/06/28 01:58:23;;;;;;;10.10;9.25;;;;;;;;;;5015875;28;20227;-79
2022/06/28 02:00:49;;;;;;;9.57;8.77;;;;;;;;;;5023224;28;20307;-81
2022/06/28 02:03:16;;;;;;;10.15;9.25;;;;;;;;;;5009953;28;20374;-80
2022/06/28 02:05:44;;;;;;;10.07;9.32;;;;;;;;;;5012196;28;20233;-79
2022/06/28 02:08:13;;;;;;;9.85;8.95;;;;;;;;;;5020924;28;20221;-79
2022/06/28 02:10:59;;;;;;;10.10;9.10;;;;;;;;;;5018944;28;20296;-80
2022/06/28 02:13:30;;;;;;;9.07;8.27;;;;;;;;;;5012734;28;20230;-79
2022/06/28 02:15:56;;;;;;;10.15;9.02;;;;;;;;;;5013704;28;20227;-79
2022/06/28 02:18:25;;;;;;;9.20;8.50;;;;;;;;;;5011566;28;20223;-80
2022/06/28 02:20:52;;;;;;;9.93;9.10;;;;;;;;;;5033435;28;20220;-78
2022/06/28 02:23:20;;;;;;;9.35;8.65;;;;;;;;;;5020388;28;20520;-79
2022/06/28 02:25:46;;;;;;;9.93;9.13;;;;;;;;;;5012417;28;20216;-80
2022/06/28 02:28:11;;;;;;;9.20;8.50;;;;;;;;;;5004451;28;20220;-79
2022/06/28 02:30:39;;;;;;;9.35;8.45;;;;;;;;;;5022424;28;20928;-79
2022/06/28 02:33:10;;;;;;;8.45;7.82;;;;;;;;;;5009792;28;20208;-78
2022/06/28 02:41:15;;;;;;;7.97;7.32;;;;;;;;;;5011735;28;20208;-79
2022/06/28 02:43:40;;;;;;;8.65;7.80;;;;;;;;;;5013685;28;20278;-78
2022/06/28 02:46:06;;;;;;;8.25;7.63;;;;;;;;;;5010430;28;20212;-80
2022/06/28 02:48:34;;;;;;;10.30;8.18;;;;;;;;;;5022393;28;20290;-80
2022/06/28 02:51:00;;;;;;;9.52;8.30;;;;;;;;;;5013044;28;20734;-79
2022/06/28 02:53:28;;;;;;;8.90;7.70;;;;;;;;;;5023625;28;20227;-79
2022/06/28 02:55:55;;;;;;;10.40;8.90;;;;;;;;;;5019552;28;20281;-80
2022/06/28 02:58:21;;;;;;;9.75;8.82;;;;;;;;;;5003914;28;21028;-80
2022/06/28 03:00:54;;;;;;;9.75;8.68;;;;;;;;;;5017938;28;20278;-79
2022/06/28 03:03:22;;;;;;;11.52;9.32;;;;;;;;;;5028251;28;20231;-77
2022/06/28 03:05:50;;;;;;;11.00;9.90;;;;;;;;;;5008135;28;20232;-77
2022/06/28 03:08:18;;;;;;;12.30;11.10;;;;;;;;;;5015481;28;20224;-76
2022/06/28 03:10:44;;;;;;;13.30;12.05;;;;;;;;;;5013722;28;20228;-77
2022/06/28 03:13:09;;;;;;;14.80;13.35;;;;;;;;;;5003566;28;20635;-77
2022/06/28 03:15:37;;;;;;;16.52;14.93;;;;;;;;;;5010324;28;20227;-78
2022/06/28 03:18:06;;;;;;;15.48;14.15;;;;;;;;;;5010254;28;20300;-78
2022/06/28 03:20:33;;;;;;;16.55;14.57;;;;;;;;;;5009620;28;20224;-78
2022/06/28 03:23:00;;;;;;;16.05;14.55;;;;;;;;;;5009582;28;20228;-77
2022/06/28 03:25:32;;;;;;;16.15;14.63;;;;;;;;;;5011174;28;20220;-78
2022/06/28 03:27:58;;;;;;;16.60;15.13;;;;;;;;;;5031034;28;20228;-77
2022/06/28 03:30:28;;;;;;;16.77;15.27;;;;;;;;;;5030217;28;20215;-78
2022/06/28 03:32:53;;;;;;;18.65;17.10;;;;;;;;;;5041218;28;20326;-77
2022/06/28 03:35:24;;;;;;;20.92;18.92;;;;;;;;;;5018765;28;20990;-81
2022/06/28 03:37:50;;;;;;;21.08;19.15;;;;;;;;;;5026290;28;20224;-79
2022/06/28 03:40:16;;;;;;;23.45;21.23;;;;;;;;;;5015895;28;20224;-80
2022/06/28 03:42:47;;;;;;;23.50;21.20;;;;;;;;;;5024280;28;20235;-79
2022/06/28 03:45:12;;;;;;;25.00;22.45;;;;;;;;;;5012885;28;20220;-80
2022/06/28 03:47:44;;;;;;;26.30;23.70;;;;;;;;;;5014350;28;20619;-79
2022/06/28 03:50:33;;;;;;;27.05;24.58;;;;;;;;;;5004631;28;20220;-79
2022/06/28 03:53:11;;;;;;;26.88;24.63;;;;;;;;;;5014364;28;20274;-82
2022/06/28 03:56:01;;;;;;;28.23;25.50;;;;;;;;;;5020162;28;20302;-77
2022/06/28 03:58:27;;;;;;;28.52;26.00;;;;;;;;;;5013004;28;20769;-79
2022/06/28 04:00:55;;;;;;;30.65;27.58;;;;;;;;;;5029233;28;20605;-80
2022/06/28 04:03:24;;;;;;;30.52;27.77;;;;;;;;;;5013180;28;20294;-79
2022/06/28 04:05:52;;;;;;;32.38;29.38;;;;;;;;;;5020246;28;20724;-77
2022/06/28 04:08:20;;;;;;;32.33;29.15;;;;;;;;;;5010560;28;20234;-77
2022/06/28 04:13:50;;;;;;;30.95;28.05;;;;;;;;;;5040281;28;20701;-78
2022/06/28 04:16:21;;;;;;;31.67;28.52;;;;;;;;;;5012526;28;20251;-77
2022/06/28 04:18:52;;;;;;;32.97;29.63;;;;;;;;;;5011834;28;20299;-76
2022/06/28 04:21:30;;;;;;;32.72;29.77;;;;;;;;;;4995566;28;20362;-76
2022/06/28 04:24:30;;;;;;;30.98;28.20;;;;;;;;;;5033070;28;20907;-77
2022/06/28 04:27:09;;;;;;;33.40;30.27;;;;;;;;;;5023688;28;20224;-79
2022/06/28 04:29:34;;;;;;;31.15;28.27;;;;;;;;;;5008041;28;20705;-74
2022/06/28 04:32:07;;;;;;;31.65;28.85;;;;;;;;;;5008426;28;21057;-76
2022/06/28 04:34:34;;;;;;;30.80;28.00;;;;;;;;;;5014819;28;20343;-79
2022/06/28 04:37:02;;;;;;;30.73;28.02;;;;;;;;;;5011891;28;20749;-76
2022/06/28 04:39:28;;;;;;;30.48;27.55;;;;;;;;;;5011701;28;21058;-76
2022/06/28 04:42:08;;;;;;;30.80;28.00;;;;;;;;;;5011972;28;20260;-77
2022/06/28 04:44:39;;;;;;;31.35;28.60;;;;;;;;;;5012190;28;20278;-76
2022/06/28 04:47:08;;;;;;;34.05;30.95;;;;;;;;;;5023128;28;20217;-78
2022/06/28 04:49:34;;;;;;;32.95;30.15;;;;;;;;;;5010746;28;20258;-77
2022/06/28 04:52:00;;;;;;;36.45;32.58;;;;;;;;;;5009076;28;20313;-79
2022/06/28 04:54:36;;;;;;;33.72;30.73;;;;;;;;;;5024052;28;20217;-79
2022/06/28 04:57:19;;;;;;;33.33;29.92;;;;;;;;;;5018365;28;20212;-78
2022/06/28 04:59:52;;;;;;;33.35;30.15;;;;;;;;;;5015147;28;20224;-78
2022/06/28 05:02:37;;;;;;;32.63;29.70;;;;;;;;;;4995115;28;20227;-77
2022/06/28 05:05:08;;;;;;;33.92;30.55;;;;;;;;;;5030255;28;20311;-77
2022/06/28 05:07:38;;;;;;;33.10;30.00;;;;;;;;;;5020413;28;20251;-76
2022/06/28 05:10:08;;;;;;;33.10;29.98;;;;;;;;;;5001453;28;20228;-77
2022/06/28 05:12:42;;;;;;;33.45;30.38;;;;;;;;;;5002928;28;20219;-77
2022/06/28 05:15:08;;;;;;;32.90;29.65;;;;;;;;;;5014125;28;20224;-79
2022/06/28 05:17:54;;;;;;;36.47;33.03;;;;;;;;;;5017937;28;20224;-77
2022/06/28 05:20:20;;;;;;;38.13;34.63;;;;;;;;;;5000850;28;20216;-77
2022/06/28 05:22:46;;;;;;;38.08;34.38;;;;;;;;;;5000436;28;20243;-77
2022/06/28 05:25:30;;;;;;;38.65;35.00;;;;;;;;;;5022129;28;20231;-77
2022/06/28 05:27:59;;;;;;;36.78;33.22;;;;;;;;;;4998929;28;20220;-79
2022/06/28 05:30:24;;;;;;;37.30;33.30;;;;;;;;;;5023315;28;20216;-76
2022/06/28 05:32:51;;;;;;;36.00;32.25;;;;;;;;;;5022546;28;20610;-77
2022/06/28 05:35:16;;;;;;;36.85;33.33;;;;;;;;;;5027388;28;20212;-76
2022/06/28 05:37:47;;;;;;;36.65;33.28;;;;;;;;;;5009022;28;20217;-76
2022/06/28 05:40:15;;;;;;;34.60;31.30;;;;;;;;;;5029809;28;20270;-77
2022/06/28 05:42:41;;;;;;;33.25;30.00;;;;;;;;;;5004049;28;20247;-77
2022/06/28 05:45:13;;;;;;;33.70;30.60;;;;;;;;;;5025546;28;20213;-78
2022/06/28 05:47:41;;;;;;;34.88;31.35;;;;;;;;;;5012738;28;20259;-78
2022/06/28 05:50:09;;;;;;;34.00;30.63;;;;;;;;;;5013334;28;20220;-77
2022/06/28 05:52:37;;;;;;;33.38;30.35;;;;;;;;;;5016011;28;20226;-78
2022/06/28 05:55:03;;;;;;;31.67;28.65;;;;;;;;;;5022799;28;20220;-78
2022/06/28 05:57:29;;;;;;;31.40;28.55;;;;;;;;;;5012448;28;20243;-75
2022/06/28 05:59:57;;;;;;;31.45;28.52;;;;;;;;;;5027009;28;20234;-77
2022/06/28 06:02:47;;;;;;;32.72;29.58;;;;;;;;;;5006082;28;20235;-80
2022/06/28 06:05:16;;;;;;;30.90;27.85;;;;;;;;;;4989989;28;20224;-78
2022/06/28 06:07:45;;;;;;;30.63;27.67;;;;;;;;;;5010321;28;20212;-77
2022/06/28 06:10:10;;;;;;;27.58;24.90;;;;;;;;;;5018079;28;20350;-78
2022/06/28 06:12:39;;;;;;;24.20;22.00;;;;;;;;;;5006996;28;20231;-78
2022/06/28 06:15:07;;;;;;;22.83;20.73;;;;;;;;;;5012982;28;20232;-77
2022/06/28 06:17:33;;;;;;;23.20;21.00;;;;;;;;;;5019989;28;20221;-78
2022/06/28 06:20:02;;;;;;;22.77;20.42;;;;;;;;;;5035597;28;20581;-75
2022/06/28 06:22:31;;;;;;;22.85;20.77;;;;;;;;;;5016796;28;20227;-73
2022/06/28 06:25:04;;;;;;;19.10;17.40;;;;;;;;;;5022715;28;20224;-75
2022/06/28 06:27:35;;;;;;;18.42;16.83;;;;;;;;;;5007594;28;20224;-77
2022/06/28 06:30:01;;;;;;;18.35;16.75;;;;;;;;;;5003949;28;20294;-77
2022/06/28 06:33:07;;;;;;;18.65;16.90;;;;;;;;;;5008780;28;20228;-77
2022/06/28 06:35:59;;;;;;;17.02;15.40;;;;;;;;;;5017081;28;20333;-76
2022/06/28 06:38:25;;;;;;;17.58;15.88;;;;;;;;;;5012677;28;20319;-77
2022/06/28 06:40:54;;;;;;;18.35;15.63;;;;;;;;;;5008146;28;20231;-78
2022/06/28 06:43:26;;;;;;;15.57;14.10;;;;;;;;;;5006108;28;20224;-76
2022/06/28 06:46:01;;;;;;;13.98;12.75;;;;;;;;;;5022276;28;20226;-74
2022/06/28 06:48:26;;;;;;;11.93;10.73;;;;;;;;;;5017988;28;20304;-76
2022/06/28 06:50:52;;;;;;;12.82;11.50;;;;;;;;;;5018644;28;20223;-76
2022/06/28 06:53:23;;;;;;;11.40;10.40;;;;;;;;;;5008968;28;20706;-75
2022/06/28 06:55:50;;;;;;;11.38;10.32;;;;;;;;;;5016923;28;20216;-75
2022/06/28 06:58:15;;;;;;;11.52;10.35;;;;;;;;;;5008255;28;20215;-78
2022/06/28 07:00:41;;;;;;;10.82;9.73;;;;;;;;;;5004521;28;20282;-77
2022/06/28 07:03:07;;;;;;;12.32;11.13;;;;;;;;;;5007414;28;20228;-75
2022/06/28 07:05:36;;;;;;;11.70;10.60;;;;;;;;;;5009268;28;20228;-76
2022/06/28 07:08:01;;;;;;;10.60;9.50;;;;;;;;;;5009773;28;20709;-76
2022/06/28 07:10:33;;;;;;;11.70;10.43;;;;;;;;;;5010498;28;20243;-75
2022/06/28 07:13:01;;;;;;;11.88;10.68;;;;;;;;;;5009826;28;20981;-75
2022/06/28 07:15:29;;;;;;;11.43;10.20;;;;;;;;;;5034761;28;20224;-76
2022/06/28 07:17:59;;;;;;;11.60;10.48;;;;;;;;;;5025578;28;20224;-75
2022/06/28 07:20:25;;;;;;;10.82;9.52;;;;;;;;;;4991567;28;20335;-74
2022/06/28 07:22:55;;;;;;;12.52;9.77;;;;;;;;;;4992315;28;20307;-77
2022/06/28 07:25:23;;;;;;;10.45;9.13;;;;;;;;;;5023970;28;20231;-75
2022/06/28 07:27:52;;;;;;;9.10;8.25;;;;;;;;;;5003672;28;20698;-76
2022/06/28 07:30:17;;;;;;;9.00;8.10;;;;;;;;;;5007586;28;20220;-77
2022/06/28 07:32:43;;;;;;;12.40;9.90;;;;;;;;;;5004925;28;20368;-77
2022/06/28 07:35:11;;;;;;;10.18;9.20;;;;;;;;;;5008297;28;20242;-75
2022/06/28 07:37:43;;;;;;;8.68;7.80;;;;;;;;;;5006245;28;20216;-76
2022/06/28 07:40:10;;;;;;;10.18;7.63;;;;;;;;;;5017972;28;20207;-75
2022/06/28 07:42:57;;;;;;;7.47;6.78;;;;;;;;;;5018474;28;20236;-74
2022/06/28 07:45:39;;;;;;;7.88;6.72;;;;;;;;;;5018665;28;20212;-77
2022/06/28 07:48:19;;;;;;;7.68;6.90;;;;;;;;;;5004796;28;20225;-76
2022/06/28 07:53:33;;;;;;;6.60;5.57;;;;;;;;;;4991717;28;20220;-74
2022/06/28 07:56:22;;;;;;;6.68;4.80;;;;;;;;;;5015317;28;21763;-75
2022/06/28 07:58:48;;;;;;;6.72;6.13;;;;;;;;;;5035520;28;21031;-76
2022/06/28 08:01:20;;;;;;;8.20;6.03;;;;;;;;;;4999694;28;20220;-74
2022/06/28 08:03:54;;;;;;;6.43;5.82;;;;;;;;;;5013176;28;20233;-77
2022/06/28 08:06:20;;;;;;;7.18;5.50;;;;;;;;;;5007481;28;20220;-76
2022/06/28 08:08:51;;;;;;;5.75;5.10;;;;;;;;;;5012313;28;20234;-75
2022/06/28 08:11:17;;;;;;;6.35;4.30;;;;;;;;;;4999972;28;20235;-75
2022/06/28 08:13:50;;;;;;;9.98;4.07;;;;;;;;;;5011494;28;20589;-76
2022/06/28 08:16:16;;;;;;;8.40;4.65;;;;;;;;;;5011123;28;20220;-76
2022/06/28 08:18:44;;;;;;;6.82;4.22;;;;;;;;;;5019592;28;20216;-75
2022/06/28 08:21:10;;;;;;;7.15;4.10;;;;;;;;;;4988155;28;20299;-75
2022/06/28 08:23:38;;;;;;;5.43;3.53;;;;;;;;;;5019765;28;20243;-77
2022/06/28 08:26:04;;;;;;;5.50;4.22;;;;;;;;;;5024211;28;20602;-73
2022/06/28 08:28:29;;;;;;;5.65;4.13;;;;;;;;;;5009101;28;20278;-76
2022/06/28 08:30:57;;;;;;;6.22;4.22;;;;;;;;;;5011482;28;20231;-76
2022/06/28 08:33:25;;;;;;;6.22;3.80;;;;;;;;;;5034799;28;20247;-75
2022/06/28 08:35:52;;;;;;;5.55;4.18;;;;;;;;;;5010088;28;20224;-77
2022/06/28 08:38:18;;;;;;;7.60;4.28;;;;;;;;;;5021090;28;20340;-76
2022/06/28 08:40:50;;;;;;;7.40;4.60;;;;;;;;;;5004080;28;20602;-76
2022/06/28 08:43:16;;;;;;;7.13;4.00;;;;;;;;;;5008703;28;20224;-78
2022/06/28 08:45:44;;;;;;;7.72;4.38;;;;;;;;;;5017139;28;20212;-75
2022/06/28 08:48:17;;;;;;;4.78;3.83;;;;;;;;;;5019807;28;20255;-73
2022/06/28 08:50:42;;;;;;;7.38;3.88;;;;;;;;;;5012150;28;20702;-75
2022/06/28 08:53:11;;;;;;;4.93;4.13;;;;;;;;;;5016399;28;20224;-74
2022/06/28 08:55:41;;;;;;;5.57;3.67;;;;;;;;;;5019201;28;20225;-78
2022/06/28 08:58:07;;;;;;;6.97;3.55;;;;;;;;;;5029597;28;20217;-78
2022/06/28 09:00:35;;;;;;;5.20;3.88;;;;;;;;;;5037420;28;20219;-77
2022/06/28 09:03:01;;;;;;;11.00;4.70;;;;;;;;;;5010059;28;20243;-74
2022/06/28 09:05:27;;;;;;;13.68;4.30;;;;;;;;;;5016156;28;20232;-77
2022/06/28 09:07:55;;;;;;;5.10;2.95;;;;;;;;;;5010692;28;20216;-77
2022/06/28 09:10:21;;;;;;;6.38;3.08;;;;;;;;;;5008221;28;20748;-77
2022/06/28 09:12:55;;;;;;;4.72;3.00;;;;;;;;;;5024098;28;20212;-78
2022/06/28 09:15:24;;;;;;;4.75;3.10;;;;;;;;;;5021473;28;20279;-78
2022/06/28 09:17:55;;;;;;;7.45;3.45;;;;;;;;;;5021706;28;20225;-79
2022/06/28 09:20:34;;;;;;;3.00;2.70;;;;;;;;;;5016237;28;20624;-73
2022/06/28 09:22:59;;;;;;;5.00;3.10;;;;;;;;;;5021859;28;20224;-75
2022/06/28 09:25:31;;;;;;;6.63;3.10;;;;;;;;;;5020143;28;20216;-73
2022/06/28 09:27:58;;;;;;;12.93;3.50;;;;;;;;;;5021215;28;20216;-75
2022/06/28 09:30:24;;;;;;;6.93;3.15;;;;;;;;;;5008364;28;20710;-72
2022/06/28 09:32:50;;;;;;;5.30;3.17;;;;;;;;;;5037442;28;20284;-75
2022/06/28 09:35:16;;;;;;;4.88;3.40;;;;;;;;;;4998603;28;20250;-74
2022/06/28 09:40:10;;;;;;;6.35;3.60;;;;;;;;;;5009947;28;20232;-75
2022/06/28 09:42:40;;;;;;;5.80;3.90;;;;;;;;;;4992905;28;20223;-77
2022/06/28 09:45:12;;;;;;;6.03;3.63;;;;;;;;;;5009358;28;20254;-75
2022/06/28 09:47:46;;;;;;;5.45;3.90;;;;;;;;;;5017082;28;20777;-75
2022/06/28 09:50:12;;;;;;;7.38;2.83;;;;;;;;;;5002110;28;20616;-73
2022/06/28 09:52:45;;;;;;;5.63;2.90;;;;;;;;;;5008201;28;20246;-75
2022/06/28 09:55:12;;;;;;;4.00;3.35;;;;;;;;;;4994898;28;20301;-75
2022/06/28 09:57:41;;;;;;;4.35;3.35;;;;;;;;;;5004709;28;20463;-77
2022/06/28 10:00:08;;;;;;;3.65;3.20;;;;;;;;;;5000948;28;20232;-77
2022/06/28 10:02:38;;;;;;;4.60;2.97;;;;;;;;;;5009263;28;20220;-75
2022/06/28 10:05:06;;;;;;;2.80;2.28;;;;;;;;;;5004598;28;20248;-75
2022/06/28 10:07:34;;;;;;;3.72;2.40;;;;;;;;;;5010590;28;20286;-77
2022/06/28 10:10:00;;;;;;;4.35;3.10;;;;;;;;;;5019780;28;20239;-78
2022/06/28 10:15:20;;;;;;;5.38;2.83;;;;;;;;;;5023310;28;20662;-76
2022/06/28 10:17:58;;;;;;;5.82;2.88;;;;;;;;;;5024869;28;20226;-76
2022/06/28 10:20:32;;;;;;;3.95;2.50;;;;;;;;;;5014415;28;20236;-76
2022/06/28 10:23:18;;;;;;;5.55;2.38;;;;;;;;;;5005551;28;20311;-77
2022/06/28 10:26:09;;;;;;;5.22;2.45;;;;;;;;;;5019374;28;20793;-73
2022/06/28 10:28:35;;;;;;;5.72;2.50;;;;;;;;;;5021326;28;20222;-74
2022/06/28 10:31:23;;;;;;;4.63;2.40;;;;;;;;;;5007941;28;20749;-74
2022/06/28 10:33:53;;;;;;;3.97;2.30;;;;;;;;;;5017204;28;20219;-74
2022/06/28 10:36:19;;;;;;;6.65;2.63;;;;;;;;;;5016504;28;20228;-76
2022/06/28 10:39:03;;;;;;;4.43;2.45;;;;;;;;;;5006975;28;20222;-74
2022/06/28 10:41:50;;;;;;;4.68;2.17;;;;;;;;;;5029639;28;20228;-72
2022/06/28 10:44:18;;;;;;;3.58;2.03;;;;;;;;;;5017983;28;20220;-74
2022/06/28 10:46:57;;;;;;;3.13;1.95;;;;;;;;;;5015098;28;20870;-75
2022/06/28 10:49:22;;;;;;;2.95;1.88;;;;;;;;;;5020488;28;20285;-72
2022/06/28 10:52:10;;;;;;;3.47;1.90;;;;;;;;;;5032430;28;20244;-75
2022/06/28 10:54:36;;;;;;;3.40;1.75;;;;;;;;;;5016554;28;20729;-76
2022/06/28 10:57:01;;;;;;;4.15;1.83;;;;;;;;;;5006671;28;20227;-75
2022/06/28 10:59:36;;;;;;;3.72;1.90;;;;;;;;;;4999508;28;20615;-74
2022/06/28 11:02:04;;;;;;;4.30;2.10;;;;;;;;;;4999666;28;20223;-77
2022/06/28 11:04:30;;;;;;;4.07;1.70;;;;;;;;;;5030944;28;20236;-74
2022/06/28 11:07:23;;;;;;;4.80;1.67;;;;;;;;;;5016142;28;20212;-76
2022/06/28 11:10:06;;;;;;;2.78;1.85;;;;;;;;;;5014024;28;20228;-75
2022/06/28 11:12:37;;;;;;;6.55;1.73;;;;;;;;;;5001229;28;20224;-73
2022/06/28 11:15:11;;;;;;;1.75;1.63;;;;;;;;;;5017783;28;20219;-75
2022/06/28 11:17:43;;;;;;;2.90;1.70;;;;;;;;;;5019241;28;20697;-76
2022/06/28 11:20:12;;;;;;;2.78;1.80;;;;;;;;;;5015895;28;20229;-75
2022/06/28 11:22:48;;;;;;;3.60;1.40;;;;;;;;;;5032002;28;20224;-75
2022/06/28 11:25:18;;;;;;;3.58;1.58;;;;;;;;;;5008669;28;20233;-74
2022/06/28 11:27:56;;;;;;;2.85;1.30;;;;;;;;;;5008548;28;20308;-74
2022/06/28 11:30:27;;;;;;;2.38;1.40;;;;;;;;;;5037309;28;20954;-73
2022/06/28 11:32:55;;;;;;;1.60;1.15;;;;;;;;;;5053317;23;20236;-80
2022/06/28 11:35:27;;;;;;;2.47;1.25;;;;;;;;;;4978589;28;20236;-82
2022/06/28 11:37:53;;;;;;;2.05;1.60;;;;;;;;;;5003226;28;20884;-84
2022/06/28 11:40:28;;;;;;;3.08;1.58;;;;;;;;;;5002208;28;20228;-82
2022/06/28 11:43:10;;;;;;;2.20;1.30;;;;;;;;;;5012216;28;20318;-80
2022/06/28 11:45:43;;;;;;;1.90;1.10;;;;;;;;;;4996461;28;20307;-81
2022/06/28 11:48:12;;;;;;;2.13;1.10;;;;;;;;;;4986716;28;20224;-84
2022/06/28 11:50:50;;;;;;;1.80;0.90;;;;;;;;;;5002795;28;20213;-81
2022/06/28 11:53:18;;;;;;;2.85;1.10;;;;;;;;;;4996415;28;20224;-82
2022/06/28 11:55:45;;;;;;;3.25;1.00;;;;;;;;;;5010810;28;20713;-81
2022/06/28 11:58:25;;;;;;;2.92;1.40;;;;;;;;;;5022386;28;20221;-81
2022/06/28 12:01:11;;;;;;;2.58;1.02;;;;;;;;;;5022090;28;20220;-82
2022/06/28 12:03:43;;;;;;;2.33;0.88;;;;;;;;;;4979625;28;20240;-82
2022/06/28 12:06:13;;;;;;;1.70;1.00;;;;;;;;;;5020210;28;20225;-83
2022/06/28 12:08:47;;;;;;;2.15;1.10;;;;;;;;;;5003123;28;20232;-84
2022/06/28 12:11:24;;;;;;;1.75;1.00;;;;;;;;;;5002273;28;20247;-81
2022/06/28 12:13:57;;;;;;;1.08;0.88;;;;;;;;;;5037800;28;20244;-81
2022/06/28 12:16:23;;;;;;;3.30;1.10;;;;;;;;;;4983963;28;20229;-84
2022/06/28 12:18:55;;;;;;;2.53;1.10;;;;;;;;;;4989505;28;20230;-84
2022/06/28 12:21:23;;;;;;;2.03;1.00;;;;;;;;;;5005692;28;20239;-84
2022/06/28 12:23:49;;;;;;;1.65;1.00;;;;;;;;;;4987050;28;20232;-81
2022/06/28 12:26:15;;;;;;;1.63;1.23;;;;;;;;;;5003286;28;20267;-84
2022/06/28 12:28:43;;;;;;;4.20;1.10;;;;;;;;;;4981886;28;20597;-81
2022/06/28 12:31:09;;;;;;;1.20;1.00;;;;;;;;;;4998938;28;20235;-81
2022/06/28 12:33:35;;;;;;;3.75;1.30;;;;;;;;;;4997058;28;20307;-80
2022/06/28 12:36:00;;;;;;;4.05;1.10;;;;;;;;;;4999671;28;20224;-80
2022/06/28 12:38:26;;;;;;;2.58;1.10;;;;;;;;;;4982671;28;20736;-83
2022/06/28 12:40:51;;;;;;;2.78;1.10;;;;;;;;;;5035814;28;20224;-78
2022/06/28 12:43:17;;;;;;;3.40;1.10;;;;;;;;;;4983395;28;20770;-81
2022/06/28 12:45:44;;;;;;;1.42;1.08;;;;;;;;;;5033328;28;20224;-83
2022/06/28 12:48:10;;;;;;;3.47;1.15;;;;;;;;;;4998725;28;20225;-87
2022/06/28 12:50:36;;;;;;;2.42;1.02;;;;;;;;;;4987259;28;20234;-85
2022/06/28 12:53:04;;;;;;;1.40;0.93;;;;;;;;;;5002360;28;20239;-88
2022/06/28 12:55:32;;;;;;;1.50;1.10;;;;;;;;;;4976390;28;20216;-84
2022/06/28 12:57:59;;;;;;;1.63;1.10;;;;;;;;;;4985888;28;20224;-85
2022/06/28 13:00:25;;;;;;;1.98;1.00;;;;;;;;;;4998936;28;20231;-85
2022/06/28 13:02:54;;;;;;;2.38;1.00;;;;;;;;;;5017494;28;20240;-85
2022/06/28 13:05:21;;;;;;;1.52;1.00;;;;;;;;;;5022691;28;20232;-86
2022/06/28 13:07:53;;;;;;;1.02;0.90;;;;;;;;;;5012523;28;20220;-85
2022/06/28 13:10:19;;;;;;;1.20;0.85;;;;;;;;;;5011612;28;20276;-85
2022/06/28 13:12:44;;;;;;;3.83;1.20;;;;;;;;;;5006165;28;20224;-85
2022/06/28 13:15:10;;;;;;;2.92;1.10;;;;;;;;;;4984193;28;20232;-85
2022/06/28 13:17:38;;;;;;;2.97;1.05;;;;;;;;;;4981981;28;20229;-84
2022/06/28 13:20:06;;;;;;;2.63;0.80;;;;;;;;;;4981583;28;20237;-87
2022/06/28 13:22:31;;;;;;;3.08;0.90;;;;;;;;;;4982691;28;20224;-85
2022/06/28 13:25:02;;;;;;;2.05;1.08;;;;;;;;;;5017579;28;20307;-86
2022/06/28 13:27:28;;;;;;;1.73;1.02;;;;;;;;;;5008875;28;20278;-84
2022/06/28 13:29:53;;;;;;;1.70;0.90;;;;;;;;;;4983301;28;20228;-87
2022/06/28 13:32:19;;;;;;;2.45;1.88;;;;;;;;;;4999874;28;20221;-85
2022/06/28 13:34:44;;;;;;;3.80;1.20;;;;;;;;;;4981414;28;20233;-85
2022/06/28 13:37:13;;;;;;;1.77;1.05;;;;;;;;;;4983493;28;20231;-88
2022/06/28 13:39:41;;;;;;;3.38;1.00;;;;;;;;;;5005257;28;20228;-88
2022/06/28 13:42:07;;;;;;;1.38;0.90;;;;;;;;;;4999103;28;20312;-85
2022/06/28 13:44:33;;;;;;;1.80;1.10;;;;;;;;;;5001700;28;20241;-84
2022/06/28 13:47:01;;;;;;;2.00;0.90;;;;;;;;;;4991979;28;20225;-85
2022/06/28 13:49:29;;;;;;;2.30;1.00;;;;;;;;;;4994879;28;20267;-85
2022/06/28 13:51:54;;;;;;;2.53;1.00;;;;;;;;;;5004540;28;20224;-82
2022/06/28 13:54:20;;;;;;;2.17;1.08;;;;;;;;;;5005654;28;20220;-85
2022/06/28 13:56:46;;;;;;;2.15;1.20;;;;;;;;;;5028831;28;20268;-86
2022/06/28 13:59:15;;;;;;;2.85;1.08;;;;;;;;;;5008461;28;20284;-84
2022/06/28 14:01:46;;;;;;;1.65;1.05;;;;;;;;;;4989342;28;20241;-86
2022/06/28 14:04:15;;;;;;;1.33;1.13;;;;;;;;;;4994151;28;20261;-86
2022/06/28 14:06:41;;;;;;;1.42;1.00;;;;;;;;;;4996237;28;20255;-86
2022/06/28 14:09:09;;;;;;;3.90;0.93;;;;;;;;;;4981214;28;20225;-86
2022/06/28 14:11:37;;;;;;;1.60;0.90;;;;;;;;;;4998515;28;20235;-86
2022/06/28 14:14:08;;;;;;;3.22;1.10;;;;;;;;;;4995945;28;20260;-85
2022/06/28 14:16:52;;;;;;;1.80;0.90;;;;;;;;;;5001107;28;20216;-87
2022/06/28 14:19:20;;;;;;;1.75;1.00;;;;;;;;;;5003812;28;20231;-85
2022/06/28 14:21:54;;;;;;;1.02;0.80;;;;;;;;;;4997872;28;20692;-85
2022/06/28 14:24:23;;;;;;;3.35;1.20;;;;;;;;;;4995476;28;20299;-85
2022/06/28 14:26:54;;;;;;;1.95;1.10;;;;;;;;;;4976800;28;20224;-88
2022/06/28 14:29:28;;;;;;;2.78;1.00;;;;;;;;;;4980651;28;20224;-87
2022/06/28 14:31:54;;;;;;;1.65;1.05;;;;;;;;;;4992533;28;20223;-86
2022/06/28 14:34:22;;;;;;;2.25;1.00;;;;;;;;;;5005543;28;20231;-85
2022/06/28 14:36:54;;;;;;;2.10;1.10;;;;;;;;;;4981212;28;20224;-85
2022/06/28 14:39:20;;;;;;;3.25;1.00;;;;;;;;;;5027365;23;20275;-79
2022/06/28 14:41:48;;;;;;;2.75;1.20;;;;;;;;;;5004453;28;20220;-78
2022/06/28 14:44:15;;;;;;;1.85;1.05;;;;;;;;;;4992009;28;20224;-75
2022/06/28 14:46:46;;;;;;;1.13;1.00;;;;;;;;;;5019382;28;20227;-77
2022/06/28 14:49:12;;;;;;;5.05;1.25;;;;;;;;;;4999979;28;20262;-75
2022/06/28 14:51:37;;;;;;;2.13;1.33;;;;;;;;;;5013532;28;20299;-75
2022/06/28 14:54:03;;;;;;;2.13;1.02;;;;;;;;;;5000599;28;20232;-76
2022/06/28 14:56:29;;;;;;;1.98;0.90;;;;;;;;;;5021140;28;20235;-75
2022/06/28 14:58:57;;;;;;;2.72;1.00;;;;;;;;;;5004674;28;20224;-75
2022/06/28 15:01:25;;;;;;;2.10;1.10;;;;;;;;;;4966624;28;20293;-76
2022/06/28 15:03:51;;;;;;;1.38;1.00;;;;;;;;;;5000105;28;20304;-75
2022/06/28 15:06:20;;;;;;;1.90;0.90;;;;;;;;;;5003656;28;21081;-76
2022/06/28 15:08:48;;;;;;;1.58;0.98;;;;;;;;;;5007202;28;20225;-76
2022/06/28 15:11:16;;;;;;;2.10;1.00;;;;;;;;;;5002160;28;20226;-74
2022/06/28 15:13:41;;;;;;;1.50;1.00;;;;;;;;;;5005191;28;20216;-76